RAIN

Not for real navigation. The accuracy of this data is not assured See disclaimer for more information



ICAO NAME COUNTRY WIND Kt GUST Kt VIS m TEMP/DEW C BARO METAR
KMLP MULLAN PASS VOR ID United States 7 16 400 2/1 30.05 KMLP 172238Z AUTO 28007G16KT 240V310 0.25SM -RA FG BKN002 BKN010 OVC026 02/01 A3005 RMK AO2 RAE03B30
EDLP Paderborn / Lippstadt Germany 4 0 600 4/3 29.65 EDLP 172220Z 36004KT 340V040 0600 R24/P2000N -RA FG OVC002 04/03 Q1004 RERA
LIMK Torino / Bric Della Croce Italy 0 0 600 3/3 29.65 LIMK 172155Z 00000KT 0600 -RA FG VV/// 03/03 Q1004 RMK VAL INVIS VIS MIN 0600
KSMP STAMPEDE PASS WA United States 8 19 800 9/8 30.10 KSMP 172208Z AUTO 27008G19KT 190V330 0.5SM FG VV003 09/08 A3010 RMK AO2 RAE02 P0000 T00940083
CYMM Fort Mcmurray, Alta. Canada 0 0 800 2/2 29.32 CYMM 172244Z AUTO 00000KT 0.5SM R26/P6000FT/U -RA FG OVC031 02/02 A2932 RMK SLP947

Show more